sensor_id;sensor_type;location;lat;lon;timestamp;P1;durP1;ratioP1;P2;durP2;ratioP2
2874;SDS011;1445;52.600;13.328;2023-03-01T00:01:23;29.90;;;16.83;;
2874;SDS011;1445;52.600;13.328;2023-03-01T00:03:50;28.52;;;18.00;;
2874;SDS011;1445;52.600;13.328;2023-03-01T00:06:17;30.20;;;17.98;;
2874;SDS011;1445;52.600;13.328;2023-03-01T00:08:43;34.00;;;18.67;;
2874;SDS011;1445;52.600;13.328;2023-03-01T00:11:30;26.10;;;16.63;;
2874;SDS011;1445;52.600;13.328;2023-03-01T00:13:56;27.33;;;17.50;;
2874;SDS011;1445;52.600;13.328;2023-03-01T00:16:24;27.15;;;16.45;;
2874;SDS011;1445;52.600;13.328;2023-03-01T00:18:54;28.88;;;16.30;;
2874;SDS011;1445;52.600;13.328;2023-03-01T00:21:21;30.08;;;17.42;;
2874;SDS011;1445;52.600;13.328;2023-03-01T00:23:47;27.48;;;17.90;;
2874;SDS011;1445;52.600;13.328;2023-03-01T00:26:13;30.80;;;17.30;;
2874;SDS011;1445;52.600;13.328;2023-03-01T00:28:40;26.00;;;15.85;;
2874;SDS011;1445;52.600;13.328;2023-03-01T00:31:06;26.75;;;15.93;;
2874;SDS011;1445;52.600;13.328;2023-03-01T00:33:33;24.92;;;14.50;;
2874;SDS011;1445;52.600;13.328;2023-03-01T00:35:59;21.50;;;13.32;;
2874;SDS011;1445;52.600;13.328;2023-03-01T00:38:25;23.63;;;14.93;;
2874;SDS011;1445;52.600;13.328;2023-03-01T00:40:51;22.75;;;13.70;;
2874;SDS011;1445;52.600;13.328;2023-03-01T00:43:16;23.27;;;14.35;;
2874;SDS011;1445;52.600;13.328;2023-03-01T00:45:42;24.17;;;14.02;;
2874;SDS011;1445;52.600;13.328;2023-03-01T00:48:07;24.60;;;14.15;;
2874;SDS011;1445;52.600;13.328;2023-03-01T00:50:33;22.92;;;13.25;;
2874;SDS011;1445;52.600;13.328;2023-03-01T00:52:58;22.80;;;15.07;;
2874;SDS011;1445;52.600;13.328;2023-03-01T00:55:24;23.00;;;14.65;;
2874;SDS011;1445;52.600;13.328;2023-03-01T00:57:50;25.98;;;14.52;;
2874;SDS011;1445;52.600;13.328;2023-03-01T01:00:15;22.73;;;13.35;;
2874;SDS011;1445;52.600;13.328;2023-03-01T01:02:41;23.52;;;14.05;;
2874;SDS011;1445;52.600;13.328;2023-03-01T01:05:07;24.13;;;15.02;;
2874;SDS011;1445;52.600;13.328;2023-03-01T01:07:32;22.98;;;14.57;;
2874;SDS011;1445;52.600;13.328;2023-03-01T01:09:58;27.15;;;15.40;;
2874;SDS011;1445;52.600;13.328;2023-03-01T01:12:23;25.77;;;14.98;;
2874;SDS011;1445;52.600;13.328;2023-03-01T01:14:49;26.13;;;14.60;;
2874;SDS011;1445;52.600;13.328;2023-03-01T01:17:14;24.60;;;14.55;;
2874;SDS011;1445;52.600;13.328;2023-03-01T01:19:40;23.00;;;14.52;;
2874;SDS011;1445;52.600;13.328;2023-03-01T01:22:05;25.27;;;15.60;;
2874;SDS011;1445;52.600;13.328;2023-03-01T01:24:31;27.33;;;15.38;;
2874;SDS011;1445;52.600;13.328;2023-03-01T01:26:56;24.35;;;14.88;;
2874;SDS011;1445;52.600;13.328;2023-03-01T01:29:22;21.02;;;14.20;;
2874;SDS011;1445;52.600;13.328;2023-03-01T01:31:47;23.63;;;14.55;;
2874;SDS011;1445;52.600;13.328;2023-03-01T01:34:14;24.80;;;13.90;;
2874;SDS011;1445;52.600;13.328;2023-03-01T01:36:48;20.58;;;13.35;;
2874;SDS011;1445;52.600;13.328;2023-03-01T01:39:14;23.08;;;15.07;;
2874;SDS011;1445;52.600;13.328;2023-03-01T01:41:40;24.15;;;14.38;;
2874;SDS011;1445;52.600;13.328;2023-03-01T01:46:45;26.50;;;14.68;;
2874;SDS011;1445;52.600;13.328;2023-03-01T01:51:57;23.90;;;14.45;;
2874;SDS011;1445;52.600;13.328;2023-03-01T01:54:37;19.88;;;13.15;;
2874;SDS011;1445;52.600;13.328;2023-03-01T02:00:07;23.67;;;13.75;;
2874;SDS011;1445;52.600;13.328;2023-03-01T02:05:06;24.75;;;13.57;;
2874;SDS011;1445;52.600;13.328;2023-03-01T02:07:36;20.85;;;13.48;;
2874;SDS011;1445;52.600;13.328;2023-03-01T02:10:05;22.90;;;13.43;;
2874;SDS011;1445;52.600;13.328;2023-03-01T02:12:30;23.05;;;13.57;;
2874;SDS011;1445;52.600;13.328;2023-03-01T02:14:56;23.08;;;13.15;;
2874;SDS011;1445;52.600;13.328;2023-03-01T02:17:22;24.25;;;13.10;;
2874;SDS011;1445;52.600;13.328;2023-03-01T02:22:55;21.27;;;12.82;;
2874;SDS011;1445;52.600;13.328;2023-03-01T02:30:43;23.17;;;13.55;;
2874;SDS011;1445;52.600;13.328;2023-03-01T02:33:32;24.02;;;14.18;;
2874;SDS011;1445;52.600;13.328;2023-03-01T02:36:22;23.05;;;13.95;;
2874;SDS011;1445;52.600;13.328;2023-03-01T02:38:48;22.77;;;12.75;;
2874;SDS011;1445;52.600;13.328;2023-03-01T02:41:16;24.65;;;13.48;;
2874;SDS011;1445;52.600;13.328;2023-03-01T02:43:44;22.25;;;13.10;;
2874;SDS011;1445;52.600;13.328;2023-03-01T02:46:20;22.27;;;13.02;;
2874;SDS011;1445;52.600;13.328;2023-03-01T02:48:50;25.33;;;14.18;;
2874;SDS011;1445;52.600;13.328;2023-03-01T02:56:38;24.52;;;14.57;;
2874;SDS011;1445;52.600;13.328;2023-03-01T02:59:04;26.25;;;14.88;;
2874;SDS011;1445;52.600;13.328;2023-03-01T03:01:30;25.88;;;15.32;;
2874;SDS011;1445;52.600;13.328;2023-03-01T03:04:12;24.45;;;13.95;;
2874;SDS011;1445;52.600;13.328;2023-03-01T03:06:42;25.95;;;13.90;;
2874;SDS011;1445;52.600;13.328;2023-03-01T03:09:15;24.63;;;14.57;;
2874;SDS011;1445;52.600;13.328;2023-03-01T03:11:41;25.40;;;14.35;;
2874;SDS011;1445;52.600;13.328;2023-03-01T03:14:10;24.92;;;14.73;;
2874;SDS011;1445;52.600;13.328;2023-03-01T03:16:55;22.95;;;13.43;;
2874;SDS011;1445;52.600;13.328;2023-03-01T03:19:21;21.83;;;13.45;;
2874;SDS011;1445;52.600;13.328;2023-03-01T03:21:46;24.75;;;13.82;;
2874;SDS011;1445;52.600;13.328;2023-03-01T03:24:12;23.20;;;13.43;;
2874;SDS011;1445;52.600;13.328;2023-03-01T03:26:37;22.10;;;13.07;;
2874;SDS011;1445;52.600;13.328;2023-03-01T03:29:03;21.60;;;13.25;;
2874;SDS011;1445;52.600;13.328;2023-03-01T03:31:28;21.75;;;12.55;;
2874;SDS011;1445;52.600;13.328;2023-03-01T03:33:54;22.20;;;14.02;;
2874;SDS011;1445;52.600;13.328;2023-03-01T03:36:20;19.52;;;12.27;;
2874;SDS011;1445;52.600;13.328;2023-03-01T03:38:47;21.67;;;13.77;;
2874;SDS011;1445;52.600;13.328;2023-03-01T03:41:13;21.17;;;12.55;;
2874;SDS011;1445;52.600;13.328;2023-03-01T03:43:40;23.63;;;13.80;;
2874;SDS011;1445;52.600;13.328;2023-03-01T03:46:07;22.05;;;12.43;;
2874;SDS011;1445;52.600;13.328;2023-03-01T03:48:34;20.83;;;12.73;;
2874;SDS011;1445;52.600;13.328;2023-03-01T03:51:00;21.73;;;12.68;;
2874;SDS011;1445;52.600;13.328;2023-03-01T03:53:27;24.48;;;13.88;;
2874;SDS011;1445;52.600;13.328;2023-03-01T03:55:53;21.48;;;12.82;;
2874;SDS011;1445;52.600;13.328;2023-03-01T03:58:21;20.35;;;12.52;;
2874;SDS011;1445;52.600;13.328;2023-03-01T04:00:48;21.20;;;12.60;;
2874;SDS011;1445;52.600;13.328;2023-03-01T04:03:16;24.90;;;13.85;;
2874;SDS011;1445;52.600;13.328;2023-03-01T04:05:43;25.58;;;14.18;;
2874;SDS011;1445;52.600;13.328;2023-03-01T04:08:09;20.58;;;12.38;;
2874;SDS011;1445;52.600;13.328;2023-03-01T04:10:36;21.42;;;13.38;;
2874;SDS011;1445;52.600;13.328;2023-03-01T04:13:06;23.90;;;13.73;;
2874;SDS011;1445;52.600;13.328;2023-03-01T04:15:32;19.67;;;12.73;;
2874;SDS011;1445;52.600;13.328;2023-03-01T04:17:59;21.38;;;12.43;;
2874;SDS011;1445;52.600;13.328;2023-03-01T04:20:29;21.80;;;12.32;;
2874;SDS011;1445;52.600;13.328;2023-03-01T04:22:57;22.48;;;12.68;;
2874;SDS011;1445;52.600;13.328;2023-03-01T04:25:24;22.45;;;13.68;;
2874;SDS011;1445;52.600;13.328;2023-03-01T04:27:50;20.17;;;12.88;;
2874;SDS011;1445;52.600;13.328;2023-03-01T04:30:15;23.60;;;13.82;;
2874;SDS011;1445;52.600;13.328;2023-03-01T04:32:41;22.63;;;13.18;;
2874;SDS011;1445;52.600;13.328;2023-03-01T04:35:07;22.27;;;12.88;;
2874;SDS011;1445;52.600;13.328;2023-03-01T04:37:33;21.05;;;12.57;;
2874;SDS011;1445;52.600;13.328;2023-03-01T04:39:59;20.38;;;12.18;;
2874;SDS011;1445;52.600;13.328;2023-03-01T04:42:26;21.00;;;12.88;;
2874;SDS011;1445;52.600;13.328;2023-03-01T04:44:51;21.17;;;12.77;;
2874;SDS011;1445;52.600;13.328;2023-03-01T04:47:17;20.67;;;12.40;;
2874;SDS011;1445;52.600;13.328;2023-03-01T04:49:42;20.88;;;12.68;;
2874;SDS011;1445;52.600;13.328;2023-03-01T04:52:08;23.17;;;12.40;;
2874;SDS011;1445;52.600;13.328;2023-03-01T04:54:34;20.58;;;12.68;;
2874;SDS011;1445;52.600;13.328;2023-03-01T04:57:01;21.75;;;12.15;;
2874;SDS011;1445;52.600;13.328;2023-03-01T04:59:27;20.48;;;12.77;;
2874;SDS011;1445;52.600;13.328;2023-03-01T05:01:54;24.48;;;12.43;;
2874;SDS011;1445;52.600;13.328;2023-03-01T05:04:21;21.48;;;12.45;;
2874;SDS011;1445;52.600;13.328;2023-03-01T05:06:47;20.58;;;12.02;;
2874;SDS011;1445;52.600;13.328;2023-03-01T05:09:12;18.02;;;11.23;;
2874;SDS011;1445;52.600;13.328;2023-03-01T05:11:38;20.85;;;12.00;;
2874;SDS011;1445;52.600;13.328;2023-03-01T05:14:07;21.90;;;12.43;;
2874;SDS011;1445;52.600;13.328;2023-03-01T05:16:33;22.83;;;12.55;;
2874;SDS011;1445;52.600;13.328;2023-03-01T05:19:01;18.67;;;11.65;;
2874;SDS011;1445;52.600;13.328;2023-03-01T05:21:36;18.63;;;11.93;;
2874;SDS011;1445;52.600;13.328;2023-03-01T05:24:22;19.65;;;12.15;;
2874;SDS011;1445;52.600;13.328;2023-03-01T05:26:48;21.30;;;12.25;;
2874;SDS011;1445;52.600;13.328;2023-03-01T05:29:13;21.17;;;13.15;;
2874;SDS011;1445;52.600;13.328;2023-03-01T05:31:38;20.48;;;11.90;;
2874;SDS011;1445;52.600;13.328;2023-03-01T05:34:04;20.65;;;11.90;;
2874;SDS011;1445;52.600;13.328;2023-03-01T05:36:29;20.33;;;11.80;;
2874;SDS011;1445;52.600;13.328;2023-03-01T05:38:55;22.80;;;12.68;;
2874;SDS011;1445;52.600;13.328;2023-03-01T05:41:20;20.20;;;12.50;;
2874;SDS011;1445;52.600;13.328;2023-03-01T05:43:46;20.05;;;13.27;;
2874;SDS011;1445;52.600;13.328;2023-03-01T05:46:11;23.98;;;13.60;;
2874;SDS011;1445;52.600;13.328;2023-03-01T05:48:38;20.63;;;11.50;;
2874;SDS011;1445;52.600;13.328;2023-03-01T05:51:03;18.42;;;11.63;;
2874;SDS011;1445;52.600;13.328;2023-03-01T05:53:29;20.42;;;12.60;;
2874;SDS011;1445;52.600;13.328;2023-03-01T05:55:54;20.88;;;12.35;;
2874;SDS011;1445;52.600;13.328;2023-03-01T05:58:20;18.95;;;12.20;;
2874;SDS011;1445;52.600;13.328;2023-03-01T06:00:47;23.45;;;12.77;;
2874;SDS011;1445;52.600;13.328;2023-03-01T06:03:14;21.23;;;13.73;;
2874;SDS011;1445;52.600;13.328;2023-03-01T06:05:41;20.45;;;13.35;;
2874;SDS011;1445;52.600;13.328;2023-03-01T06:08:07;19.50;;;13.45;;
2874;SDS011;1445;52.600;13.328;2023-03-01T06:10:34;18.50;;;12.18;;
2874;SDS011;1445;52.600;13.328;2023-03-01T06:13:00;25.65;;;14.93;;
2874;SDS011;1445;52.600;13.328;2023-03-01T06:15:25;22.17;;;13.43;;
2874;SDS011;1445;52.600;13.328;2023-03-01T06:17:52;21.63;;;13.55;;
2874;SDS011;1445;52.600;13.328;2023-03-01T06:20:21;21.50;;;13.38;;
2874;SDS011;1445;52.600;13.328;2023-03-01T06:22:47;23.30;;;14.45;;
2874;SDS011;1445;52.600;13.328;2023-03-01T06:25:15;24.80;;;13.40;;
2874;SDS011;1445;52.600;13.328;2023-03-01T06:27:46;22.02;;;13.80;;
2874;SDS011;1445;52.600;13.328;2023-03-01T06:30:12;22.15;;;12.73;;
2874;SDS011;1445;52.600;13.328;2023-03-01T06:32:39;23.13;;;14.25;;
2874;SDS011;1445;52.600;13.328;2023-03-01T06:35:07;22.30;;;13.88;;
2874;SDS011;1445;52.600;13.328;2023-03-01T06:37:36;21.67;;;13.52;;
2874;SDS011;1445;52.600;13.328;2023-03-01T06:40:02;19.92;;;12.45;;
2874;SDS011;1445;52.600;13.328;2023-03-01T06:42:36;20.25;;;13.18;;
2874;SDS011;1445;52.600;13.328;2023-03-01T06:45:02;23.80;;;13.60;;
2874;SDS011;1445;52.600;13.328;2023-03-01T06:47:29;22.38;;;12.50;;
2874;SDS011;1445;52.600;13.328;2023-03-01T06:49:55;21.67;;;13.65;;
2874;SDS011;1445;52.600;13.328;2023-03-01T06:52:20;18.50;;;12.07;;
2874;SDS011;1445;52.600;13.328;2023-03-01T06:54:46;20.50;;;12.00;;
2874;SDS011;1445;52.600;13.328;2023-03-01T06:57:11;22.35;;;13.60;;
2874;SDS011;1445;52.600;13.328;2023-03-01T06:59:36;23.38;;;13.68;;
2874;SDS011;1445;52.600;13.328;2023-03-01T07:02:02;21.33;;;12.52;;
2874;SDS011;1445;52.600;13.328;2023-03-01T07:04:27;22.30;;;12.48;;
2874;SDS011;1445;52.600;13.328;2023-03-01T07:06:54;19.25;;;12.60;;
2874;SDS011;1445;52.600;13.328;2023-03-01T07:09:21;20.67;;;12.63;;
2874;SDS011;1445;52.600;13.328;2023-03-01T07:11:47;19.50;;;12.35;;
2874;SDS011;1445;52.600;13.328;2023-03-01T07:14:13;20.80;;;13.80;;
2874;SDS011;1445;52.600;13.328;2023-03-01T07:16:38;21.48;;;12.32;;
2874;SDS011;1445;52.600;13.328;2023-03-01T07:19:04;21.45;;;13.07;;
2874;SDS011;1445;52.600;13.328;2023-03-01T07:21:30;20.45;;;12.65;;
2874;SDS011;1445;52.600;13.328;2023-03-01T07:23:55;23.40;;;13.70;;
2874;SDS011;1445;52.600;13.328;2023-03-01T07:26:21;19.80;;;12.93;;
2874;SDS011;1445;52.600;13.328;2023-03-01T07:28:46;21.25;;;12.85;;
2874;SDS011;1445;52.600;13.328;2023-03-01T07:31:12;23.55;;;13.07;;
2874;SDS011;1445;52.600;13.328;2023-03-01T07:33:38;19.52;;;12.57;;
2874;SDS011;1445;52.600;13.328;2023-03-01T07:36:03;16.65;;;11.25;;
2874;SDS011;1445;52.600;13.328;2023-03-01T07:38:32;20.15;;;11.93;;
2874;SDS011;1445;52.600;13.328;2023-03-01T07:40:59;21.65;;;11.57;;
2874;SDS011;1445;52.600;13.328;2023-03-01T07:43:26;18.70;;;12.63;;
2874;SDS011;1445;52.600;13.328;2023-03-01T07:45:52;18.95;;;12.45;;
2874;SDS011;1445;52.600;13.328;2023-03-01T07:48:18;20.45;;;11.57;;
2874;SDS011;1445;52.600;13.328;2023-03-01T07:50:43;19.25;;;11.75;;
2874;SDS011;1445;52.600;13.328;2023-03-01T07:53:09;18.15;;;10.57;;
2874;SDS011;1445;52.600;13.328;2023-03-01T07:55:35;17.10;;;11.23;;
2874;SDS011;1445;52.600;13.328;2023-03-01T07:58:00;18.30;;;11.63;;
2874;SDS011;1445;52.600;13.328;2023-03-01T08:00:26;15.43;;;10.65;;
2874;SDS011;1445;52.600;13.328;2023-03-01T08:02:51;20.50;;;12.15;;
2874;SDS011;1445;52.600;13.328;2023-03-01T08:05:17;16.02;;;10.45;;
2874;SDS011;1445;52.600;13.328;2023-03-01T08:07:42;16.38;;;10.88;;
2874;SDS011;1445;52.600;13.328;2023-03-01T08:10:08;16.58;;;10.32;;
2874;SDS011;1445;52.600;13.328;2023-03-01T08:12:34;15.32;;;9.70;;
2874;SDS011;1445;52.600;13.328;2023-03-01T08:14:59;14.70;;;9.55;;
2874;SDS011;1445;52.600;13.328;2023-03-01T08:17:25;15.43;;;9.50;;
2874;SDS011;1445;52.600;13.328;2023-03-01T08:19:50;17.33;;;9.20;;
2874;SDS011;1445;52.600;13.328;2023-03-01T08:22:16;15.38;;;8.90;;
2874;SDS011;1445;52.600;13.328;2023-03-01T08:24:41;14.38;;;8.55;;
2874;SDS011;1445;52.600;13.328;2023-03-01T08:27:06;13.43;;;7.95;;
2874;SDS011;1445;52.600;13.328;2023-03-01T08:29:32;9.77;;;6.38;;
2874;SDS011;1445;52.600;13.328;2023-03-01T08:31:58;9.57;;;6.60;;
2874;SDS011;1445;52.600;13.328;2023-03-01T08:34:24;10.13;;;6.25;;
2874;SDS011;1445;52.600;13.328;2023-03-01T08:36:50;10.68;;;6.80;;
2874;SDS011;1445;52.600;13.328;2023-03-01T08:39:17;9.95;;;6.45;;
2874;SDS011;1445;52.600;13.328;2023-03-01T08:41:44;9.93;;;6.40;;
2874;SDS011;1445;52.600;13.328;2023-03-01T08:44:11;9.82;;;6.07;;
2874;SDS011;1445;52.600;13.328;2023-03-01T08:46:38;8.18;;;5.43;;
2874;SDS011;1445;52.600;13.328;2023-03-01T08:49:15;7.65;;;5.50;;
2874;SDS011;1445;52.600;13.328;2023-03-01T08:51:42;10.38;;;6.68;;
2874;SDS011;1445;52.600;13.328;2023-03-01T08:54:10;10.27;;;6.95;;
2874;SDS011;1445;52.600;13.328;2023-03-01T08:56:38;10.13;;;6.80;;
2874;SDS011;1445;52.600;13.328;2023-03-01T08:59:03;11.63;;;7.25;;
2874;SDS011;1445;52.600;13.328;2023-03-01T09:01:29;12.57;;;7.72;;
2874;SDS011;1445;52.600;13.328;2023-03-01T09:03:54;11.30;;;7.80;;
2874;SDS011;1445;52.600;13.328;2023-03-01T09:06:20;20.20;;;8.68;;
2874;SDS011;1445;52.600;13.328;2023-03-01T09:08:49;10.88;;;7.40;;
2874;SDS011;1445;52.600;13.328;2023-03-01T09:11:16;9.68;;;6.22;;
2874;SDS011;1445;52.600;13.328;2023-03-01T09:13:50;11.80;;;6.78;;
2874;SDS011;1445;52.600;13.328;2023-03-01T09:16:17;10.93;;;7.30;;
2874;SDS011;1445;52.600;13.328;2023-03-01T09:18:53;10.52;;;6.40;;
2874;SDS011;1445;52.600;13.328;2023-03-01T09:21:20;7.22;;;4.35;;
2874;SDS011;1445;52.600;13.328;2023-03-01T09:23:48;5.68;;;3.90;;
2874;SDS011;1445;52.600;13.328;2023-03-01T09:26:14;5.50;;;3.40;;
2874;SDS011;1445;52.600;13.328;2023-03-01T09:28:42;6.15;;;3.08;;
2874;SDS011;1445;52.600;13.328;2023-03-01T09:31:09;5.25;;;2.95;;
2874;SDS011;1445;52.600;13.328;2023-03-01T09:33:37;4.47;;;3.00;;
2874;SDS011;1445;52.600;13.328;2023-03-01T09:36:04;5.15;;;2.85;;
2874;SDS011;1445;52.600;13.328;2023-03-01T09:38:30;4.43;;;2.95;;
2874;SDS011;1445;52.600;13.328;2023-03-01T09:40:56;4.32;;;2.85;;
2874;SDS011;1445;52.600;13.328;2023-03-01T09:46:10;6.60;;;3.33;;
2874;SDS011;1445;52.600;13.328;2023-03-01T09:48:42;4.63;;;2.67;;
2874;SDS011;1445;52.600;13.328;2023-03-01T09:51:16;4.75;;;2.72;;
2874;SDS011;1445;52.600;13.328;2023-03-01T09:53:44;7.13;;;3.10;;
2874;SDS011;1445;52.600;13.328;2023-03-01T09:56:20;4.97;;;3.22;;
2874;SDS011;1445;52.600;13.328;2023-03-01T09:59:29;6.80;;;3.85;;
2874;SDS011;1445;52.600;13.328;2023-03-01T10:01:59;6.10;;;3.42;;
2874;SDS011;1445;52.600;13.328;2023-03-01T10:04:51;7.38;;;3.72;;
2874;SDS011;1445;52.600;13.328;2023-03-01T10:10:24;4.85;;;3.10;;
2874;SDS011;1445;52.600;13.328;2023-03-01T10:12:51;6.43;;;3.25;;
2874;SDS011;1445;52.600;13.328;2023-03-01T10:15:18;4.45;;;3.10;;
2874;SDS011;1445;52.600;13.328;2023-03-01T10:17:57;5.20;;;3.20;;
2874;SDS011;1445;52.600;13.328;2023-03-01T10:23:19;4.32;;;3.00;;
2874;SDS011;1445;52.600;13.328;2023-03-01T10:31:03;5.88;;;3.20;;
2874;SDS011;1445;52.600;13.328;2023-03-01T10:33:30;4.50;;;3.38;;
2874;SDS011;1445;52.600;13.328;2023-03-01T10:35:57;5.60;;;3.25;;
2874;SDS011;1445;52.600;13.328;2023-03-01T10:38:22;5.20;;;3.30;;
2874;SDS011;1445;52.600;13.328;2023-03-01T10:40:58;3.70;;;2.50;;
2874;SDS011;1445;52.600;13.328;2023-03-01T10:46:28;4.20;;;2.58;;
2874;SDS011;1445;52.600;13.328;2023-03-01T10:49:16;3.70;;;2.30;;
2874;SDS011;1445;52.600;13.328;2023-03-01T10:51:53;3.38;;;2.55;;
2874;SDS011;1445;52.600;13.328;2023-03-01T10:54:24;3.88;;;2.28;;
2874;SDS011;1445;52.600;13.328;2023-03-01T10:56:56;2.72;;;2.13;;
2874;SDS011;1445;52.600;13.328;2023-03-01T10:59:28;3.50;;;2.00;;
2874;SDS011;1445;52.600;13.328;2023-03-01T11:04:59;4.95;;;2.67;;
2874;SDS011;1445;52.600;13.328;2023-03-01T11:10:33;2.83;;;2.00;;
2874;SDS011;1445;52.600;13.328;2023-03-01T11:13:17;3.60;;;2.88;;
2874;SDS011;1445;52.600;13.328;2023-03-01T11:16:03;3.38;;;2.17;;
2874;SDS011;1445;52.600;13.328;2023-03-01T11:18:32;5.13;;;2.58;;
2874;SDS011;1445;52.600;13.328;2023-03-01T11:20:59;3.90;;;2.33;;
2874;SDS011;1445;52.600;13.328;2023-03-01T11:23:27;3.30;;;2.08;;
2874;SDS011;1445;52.600;13.328;2023-03-01T11:25:56;4.65;;;2.10;;
2874;SDS011;1445;52.600;13.328;2023-03-01T11:28:27;3.20;;;2.10;;
2874;SDS011;1445;52.600;13.328;2023-03-01T11:30:56;3.08;;;2.05;;
2874;SDS011;1445;52.600;13.328;2023-03-01T11:33:40;5.10;;;2.30;;
2874;SDS011;1445;52.600;13.328;2023-03-01T11:36:16;2.97;;;1.95;;
2874;SDS011;1445;52.600;13.328;2023-03-01T11:38:43;3.42;;;2.38;;
2874;SDS011;1445;52.600;13.328;2023-03-01T11:41:13;3.08;;;1.92;;
2874;SDS011;1445;52.600;13.328;2023-03-01T11:56:52;3.40;;;2.15;;
2874;SDS011;1445;52.600;13.328;2023-03-01T12:07:39;6.35;;;2.85;;
2874;SDS011;1445;52.600;13.328;2023-03-01T12:15:22;3.35;;;2.55;;
2874;SDS011;1445;52.600;13.328;2023-03-01T12:20:56;2.78;;;2.08;;
2874;SDS011;1445;52.600;13.328;2023-03-01T12:26:26;2.90;;;2.25;;
2874;SDS011;1445;52.600;13.328;2023-03-01T12:31:37;3.88;;;1.95;;
2874;SDS011;1445;52.600;13.328;2023-03-01T12:37:48;2.72;;;2.05;;
2874;SDS011;1445;52.600;13.328;2023-03-01T12:39:51;3.30;;;2.17;;
2874;SDS011;1445;52.600;13.328;2023-03-01T12:50:48;3.65;;;1.95;;
2874;SDS011;1445;52.600;13.328;2023-03-01T12:53:34;3.05;;;2.20;;
2874;SDS011;1445;52.600;13.328;2023-03-01T12:56:08;2.28;;;1.90;;
2874;SDS011;1445;52.600;13.328;2023-03-01T13:01:36;2.33;;;1.75;;
2874;SDS011;1445;52.600;13.328;2023-03-01T13:06:54;3.42;;;2.17;;
2874;SDS011;1445;52.600;13.328;2023-03-01T13:12:43;3.03;;;2.00;;
2874;SDS011;1445;52.600;13.328;2023-03-01T13:17:46;3.70;;;2.40;;
2874;SDS011;1445;52.600;13.328;2023-03-01T13:20:13;2.67;;;1.83;;
2874;SDS011;1445;52.600;13.328;2023-03-01T13:22:41;2.78;;;1.98;;
2874;SDS011;1445;52.600;13.328;2023-03-01T13:25:17;2.38;;;1.50;;
2874;SDS011;1445;52.600;13.328;2023-03-01T13:27:46;2.80;;;1.73;;
2874;SDS011;1445;52.600;13.328;2023-03-01T13:33:33;2.25;;;1.38;;
2874;SDS011;1445;52.600;13.328;2023-03-01T13:35:59;2.97;;;1.27;;
2874;SDS011;1445;52.600;13.328;2023-03-01T13:41:09;2.42;;;1.35;;
2874;SDS011;1445;52.600;13.328;2023-03-01T13:43:38;1.73;;;1.40;;
2874;SDS011;1445;52.600;13.328;2023-03-01T13:46:25;2.15;;;1.40;;
2874;SDS011;1445;52.600;13.328;2023-03-01T13:48:51;2.25;;;1.50;;
2874;SDS011;1445;52.600;13.328;2023-03-01T13:51:23;3.72;;;1.50;;
2874;SDS011;1445;52.600;13.328;2023-03-01T13:53:52;2.20;;;1.30;;
2874;SDS011;1445;52.600;13.328;2023-03-01T13:56:27;1.58;;;1.27;;
2874;SDS011;1445;52.600;13.328;2023-03-01T13:58:59;1.92;;;1.42;;
2874;SDS011;1445;52.600;13.328;2023-03-01T14:03:57;2.05;;;1.58;;
2874;SDS011;1445;52.600;13.328;2023-03-01T14:06:28;2.03;;;1.45;;
2874;SDS011;1445;52.600;13.328;2023-03-01T14:14:48;3.03;;;1.38;;
2874;SDS011;1445;52.600;13.328;2023-03-01T14:22:53;1.90;;;1.20;;
2874;SDS011;1445;52.600;13.328;2023-03-01T14:25:28;2.28;;;1.40;;
2874;SDS011;1445;52.600;13.328;2023-03-01T14:27:57;3.08;;;1.50;;
2874;SDS011;1445;52.600;13.328;2023-03-01T14:30:33;1.85;;;1.13;;
2874;SDS011;1445;52.600;13.328;2023-03-01T14:33:03;1.33;;;1.00;;
2874;SDS011;1445;52.600;13.328;2023-03-01T14:35:35;3.17;;;1.10;;
2874;SDS011;1445;52.600;13.328;2023-03-01T14:38:01;1.40;;;0.93;;
2874;SDS011;1445;52.600;13.328;2023-03-01T14:40:32;1.45;;;1.08;;
2874;SDS011;1445;52.600;13.328;2023-03-01T14:43:00;2.47;;;1.60;;
2874;SDS011;1445;52.600;13.328;2023-03-01T14:45:33;1.77;;;1.02;;
2874;SDS011;1445;52.600;13.328;2023-03-01T14:47:59;2.53;;;1.40;;
2874;SDS011;1445;52.600;13.328;2023-03-01T14:50:28;3.83;;;1.33;;
2874;SDS011;1445;52.600;13.328;2023-03-01T14:53:00;1.40;;;0.90;;
2874;SDS011;1445;52.600;13.328;2023-03-01T14:55:33;2.22;;;1.08;;
2874;SDS011;1445;52.600;13.328;2023-03-01T14:58:02;1.88;;;1.25;;
2874;SDS011;1445;52.600;13.328;2023-03-01T15:00:34;1.75;;;1.30;;
2874;SDS011;1445;52.600;13.328;2023-03-01T15:03:04;2.40;;;1.17;;
2874;SDS011;1445;52.600;13.328;2023-03-01T15:05:38;2.00;;;1.58;;
2874;SDS011;1445;52.600;13.328;2023-03-01T15:08:05;3.15;;;1.30;;
2874;SDS011;1445;52.600;13.328;2023-03-01T15:10:32;1.58;;;1.00;;
2874;SDS011;1445;52.600;13.328;2023-03-01T15:13:10;1.60;;;1.10;;
2874;SDS011;1445;52.600;13.328;2023-03-01T15:15:47;2.58;;;1.50;;
2874;SDS011;1445;52.600;13.328;2023-03-01T15:18:18;2.78;;;1.25;;
2874;SDS011;1445;52.600;13.328;2023-03-01T15:20:46;1.95;;;1.20;;
2874;SDS011;1445;52.600;13.328;2023-03-01T15:23:18;2.00;;;1.20;;
2874;SDS011;1445;52.600;13.328;2023-03-01T15:25:55;1.92;;;1.35;;
2874;SDS011;1445;52.600;13.328;2023-03-01T15:33:29;2.30;;;1.40;;
2874;SDS011;1445;52.600;13.328;2023-03-01T15:35:56;3.20;;;1.52;;
2874;SDS011;1445;52.600;13.328;2023-03-01T15:41:23;3.28;;;1.60;;
2874;SDS011;1445;52.600;13.328;2023-03-01T15:43:50;3.08;;;1.40;;
2874;SDS011;1445;52.600;13.328;2023-03-01T15:48:48;4.10;;;1.90;;
2874;SDS011;1445;52.600;13.328;2023-03-01T15:51:17;3.50;;;2.05;;
2874;SDS011;1445;52.600;13.328;2023-03-01T15:53:52;4.28;;;2.13;;
2874;SDS011;1445;52.600;13.328;2023-03-01T15:56:18;3.85;;;2.30;;
2874;SDS011;1445;52.600;13.328;2023-03-01T15:58:44;3.25;;;2.28;;
2874;SDS011;1445;52.600;13.328;2023-03-01T16:01:13;3.50;;;2.13;;
2874;SDS011;1445;52.600;13.328;2023-03-01T16:03:40;4.10;;;2.58;;
2874;SDS011;1445;52.600;13.328;2023-03-01T16:06:08;3.53;;;2.25;;
2874;SDS011;1445;52.600;13.328;2023-03-01T16:08:34;3.53;;;2.05;;
2874;SDS011;1445;52.600;13.328;2023-03-01T16:10:59;2.83;;;2.03;;
2874;SDS011;1445;52.600;13.328;2023-03-01T16:13:28;5.10;;;2.60;;
2874;SDS011;1445;52.600;13.328;2023-03-01T16:15:53;3.85;;;2.40;;
2874;SDS011;1445;52.600;13.328;2023-03-01T16:18:19;5.00;;;2.38;;
2874;SDS011;1445;52.600;13.328;2023-03-01T16:20:44;2.95;;;2.10;;
2874;SDS011;1445;52.600;13.328;2023-03-01T16:23:10;4.78;;;2.65;;
2874;SDS011;1445;52.600;13.328;2023-03-01T16:25:36;3.20;;;2.20;;
2874;SDS011;1445;52.600;13.328;2023-03-01T16:28:02;4.70;;;2.80;;
2874;SDS011;1445;52.600;13.328;2023-03-01T16:30:33;3.63;;;2.42;;
2874;SDS011;1445;52.600;13.328;2023-03-01T16:33:00;3.95;;;2.50;;
2874;SDS011;1445;52.600;13.328;2023-03-01T16:35:26;3.95;;;2.67;;
2874;SDS011;1445;52.600;13.328;2023-03-01T16:37:52;4.35;;;2.70;;
2874;SDS011;1445;52.600;13.328;2023-03-01T16:40:23;3.90;;;2.65;;
2874;SDS011;1445;52.600;13.328;2023-03-01T16:42:51;4.82;;;2.95;;
2874;SDS011;1445;52.600;13.328;2023-03-01T16:45:18;4.82;;;2.88;;
2874;SDS011;1445;52.600;13.328;2023-03-01T16:47:43;4.60;;;2.55;;
2874;SDS011;1445;52.600;13.328;2023-03-01T16:50:09;5.15;;;3.05;;
2874;SDS011;1445;52.600;13.328;2023-03-01T16:52:35;5.43;;;3.08;;
2874;SDS011;1445;52.600;13.328;2023-03-01T16:55:02;6.75;;;3.13;;
2874;SDS011;1445;52.600;13.328;2023-03-01T16:57:29;6.03;;;3.10;;
2874;SDS011;1445;52.600;13.328;2023-03-01T16:59:55;5.45;;;2.85;;
2874;SDS011;1445;52.600;13.328;2023-03-01T17:02:20;6.05;;;3.55;;
2874;SDS011;1445;52.600;13.328;2023-03-01T17:04:53;8.38;;;4.07;;
2874;SDS011;1445;52.600;13.328;2023-03-01T17:07:19;7.13;;;3.63;;
2874;SDS011;1445;52.600;13.328;2023-03-01T17:09:44;7.43;;;4.50;;